LGSA/CHQ METAR and TAF weather

Enter ICAO airport designator
Station Type Date Time Source
LGSA METAR 2020/08/15 11:20 UTC NOAA

LGSA 151120Z 32008KT CAVOK 31/19 Q1011


Station Type Date Time Source
LGSA Decoded METAR 2020/08/15 11:20 UTC NOAA

Souda Airport , Greece (LGSA) 35-29N 024-07E 151M
Aug 15, 2020 - 07:20 AM EDT / 2020.08.15 1120 UTC
Wind: from the NW (320 degrees) at 9 MPH (8 KT):0
Visibility: greater than 7 mile(s):0
Temperature: 87 F (31 C)
Dew Point: 66 F (19 C)
Relative Humidity: 48%
Pressure (altimeter): 29.85 in. Hg (1011 hPa)
ob: LGSA 151120Z 32008KT CAVOK 31/19 Q1011
cycle: 11

Station Type Date Time Source
LGSA TAF 2020/08/15 12:16 UTC NOAA

TAF LGSA 151100Z 1512/1612 29012KT CAVOK
BECMG 1601/1603 VRB05KT

Example: see airport list